sensor_id;sensor_type;location;lat;lon;timestamp;pressure;altitude;pressure_sealevel;temperature;humidity
52735;BME280;38631;47.572;10.704;2023-05-01T00:00:14;92389.03;;;7.53;99.26
52735;BME280;38631;47.572;10.704;2023-05-01T00:02:40;92382.25;;;7.47;100.00
52735;BME280;38631;47.572;10.704;2023-05-01T00:05:05;92388.97;;;7.72;99.79
52735;BME280;38631;47.572;10.704;2023-05-01T00:07:31;92378.53;;;7.81;97.89
52735;BME280;38631;47.572;10.704;2023-05-01T00:09:57;92383.50;;;7.68;98.31
52735;BME280;38631;47.572;10.704;2023-05-01T00:12:23;92381.03;;;7.58;98.40
52735;BME280;38631;47.572;10.704;2023-05-01T00:14:48;92370.66;;;7.62;98.58
52735;BME280;38631;47.572;10.704;2023-05-01T00:17:14;92380.94;;;7.63;97.87
52735;BME280;38631;47.572;10.704;2023-05-01T00:19:39;92372.97;;;7.49;98.70
52735;BME280;38631;47.572;10.704;2023-05-01T00:22:05;92373.28;;;7.48;98.60
52735;BME280;38631;47.572;10.704;2023-05-01T00:24:31;92368.59;;;7.26;99.22
52735;BME280;38631;47.572;10.704;2023-05-01T00:26:56;92362.13;;;7.18;100.00
52735;BME280;38631;47.572;10.704;2023-05-01T00:29:21;92353.63;;;7.21;99.82
52735;BME280;38631;47.572;10.704;2023-05-01T00:31:47;92368.03;;;7.29;99.66
52735;BME280;38631;47.572;10.704;2023-05-01T00:34:12;92360.94;;;7.43;98.16
52735;BME280;38631;47.572;10.704;2023-05-01T00:36:38;92360.78;;;7.34;98.93
52735;BME280;38631;47.572;10.704;2023-05-01T00:39:04;92350.03;;;7.31;99.67
52735;BME280;38631;47.572;10.704;2023-05-01T00:41:31;92352.41;;;7.46;99.29
52735;BME280;38631;47.572;10.704;2023-05-01T00:43:57;92348.59;;;7.39;99.42
52735;BME280;38631;47.572;10.704;2023-05-01T00:46:23;92351.75;;;7.22;99.35
52735;BME280;38631;47.572;10.704;2023-05-01T00:48:48;92353.97;;;7.14;100.00
52735;BME280;38631;47.572;10.704;2023-05-01T00:51:14;92352.00;;;7.06;100.00
52735;BME280;38631;47.572;10.704;2023-05-01T00:53:39;92361.34;;;6.99;100.00
52735;BME280;38631;47.572;10.704;2023-05-01T00:56:08;92358.13;;;7.21;99.98
52735;BME280;38631;47.572;10.704;2023-05-01T00:58:35;92355.97;;;7.23;100.00
52735;BME280;38631;47.572;10.704;2023-05-01T01:01:01;92346.28;;;7.18;100.00
52735;BME280;38631;47.572;10.704;2023-05-01T01:03:26;92342.75;;;6.71;100.00
52735;BME280;38631;47.572;10.704;2023-05-01T01:05:58;92346.75;;;6.87;100.00
52735;BME280;38631;47.572;10.704;2023-05-01T01:08:34;92352.13;;;7.15;100.00
52735;BME280;38631;47.572;10.704;2023-05-01T01:19:20;92338.53;;;7.08;100.00
52735;BME280;38631;47.572;10.704;2023-05-01T01:21:57;92330.94;;;7.01;100.00
52735;BME280;38631;47.572;10.704;2023-05-01T01:27:54;92330.91;;;6.87;100.00
52735;BME280;38631;47.572;10.704;2023-05-01T01:35:28;92331.44;;;7.03;100.00
52735;BME280;38631;47.572;10.704;2023-05-01T01:38:18;92333.56;;;7.20;100.00
52735;BME280;38631;47.572;10.704;2023-05-01T01:40:56;92326.09;;;7.08;100.00
52735;BME280;38631;47.572;10.704;2023-05-01T01:43:23;92320.97;;;7.31;100.00
52735;BME280;38631;47.572;10.704;2023-05-01T01:45:55;92330.47;;;7.32;100.00
52735;BME280;38631;47.572;10.704;2023-05-01T01:48:26;92321.75;;;7.18;100.00
52735;BME280;38631;47.572;10.704;2023-05-01T01:50:57;92326.09;;;7.08;100.00
52735;BME280;38631;47.572;10.704;2023-05-01T01:53:25;92324.13;;;6.81;100.00
52735;BME280;38631;47.572;10.704;2023-05-01T01:55:53;92332.56;;;7.16;100.00
52735;BME280;38631;47.572;10.704;2023-05-01T01:58:20;92326.75;;;7.33;100.00
52735;BME280;38631;47.572;10.704;2023-05-01T02:00:50;92328.25;;;7.39;100.00
52735;BME280;38631;47.572;10.704;2023-05-01T02:03:16;92318.53;;;7.02;100.00
52735;BME280;38631;47.572;10.704;2023-05-01T02:05:44;92325.97;;;7.00;100.00
52735;BME280;38631;47.572;10.704;2023-05-01T02:08:12;92309.78;;;6.87;100.00
52735;BME280;38631;47.572;10.704;2023-05-01T02:10:40;92301.63;;;7.03;100.00
52735;BME280;38631;47.572;10.704;2023-05-01T02:13:06;92315.00;;;7.25;100.00
52735;BME280;38631;47.572;10.704;2023-05-01T02:15:32;92308.19;;;7.38;100.00
52735;BME280;38631;47.572;10.704;2023-05-01T02:18:01;92306.94;;;7.17;100.00
52735;BME280;38631;47.572;10.704;2023-05-01T02:20:27;92308.69;;;7.40;100.00
52735;BME280;38631;47.572;10.704;2023-05-01T02:22:53;92304.97;;;7.08;100.00
52735;BME280;38631;47.572;10.704;2023-05-01T02:25:18;92309.97;;;7.43;100.00
52735;BME280;38631;47.572;10.704;2023-05-01T02:27:48;92308.28;;;7.47;100.00
52735;BME280;38631;47.572;10.704;2023-05-01T02:30:14;92303.16;;;7.23;100.00
52735;BME280;38631;47.572;10.704;2023-05-01T02:32:41;92303.16;;;7.23;100.00
52735;BME280;38631;47.572;10.704;2023-05-01T02:35:06;92303.59;;;7.30;100.00
52735;BME280;38631;47.572;10.704;2023-05-01T02:37:32;92295.34;;;7.31;100.00
52735;BME280;38631;47.572;10.704;2023-05-01T02:39:57;92298.56;;;7.28;100.00
52735;BME280;38631;47.572;10.704;2023-05-01T02:42:24;92293.03;;;7.30;100.00
52735;BME280;38631;47.572;10.704;2023-05-01T02:44:56;92290.06;;;7.31;100.00
52735;BME280;38631;47.572;10.704;2023-05-01T02:47:22;92294.59;;;7.45;100.00
52735;BME280;38631;47.572;10.704;2023-05-01T02:49:50;92293.06;;;7.57;100.00
52735;BME280;38631;47.572;10.704;2023-05-01T02:52:16;92301.38;;;7.51;100.00
52735;BME280;38631;47.572;10.704;2023-05-01T02:54:43;92282.59;;;7.52;100.00
52735;BME280;38631;47.572;10.704;2023-05-01T02:57:10;92293.03;;;7.44;100.00
52735;BME280;38631;47.572;10.704;2023-05-01T02:59:35;92288.13;;;7.37;100.00
52735;BME280;38631;47.572;10.704;2023-05-01T03:02:01;92287.66;;;7.49;100.00
52735;BME280;38631;47.572;10.704;2023-05-01T03:04:26;92278.84;;;7.53;100.00
52735;BME280;38631;47.572;10.704;2023-05-01T03:06:52;92284.72;;;7.50;100.00
52735;BME280;38631;47.572;10.704;2023-05-01T03:09:18;92283.56;;;7.43;100.00
52735;BME280;38631;47.572;10.704;2023-05-01T03:11:43;92282.75;;;7.42;100.00
52735;BME280;38631;47.572;10.704;2023-05-01T03:14:09;92289.38;;;7.40;100.00
52735;BME280;38631;47.572;10.704;2023-05-01T03:16:35;92280.59;;;7.44;100.00
52735;BME280;38631;47.572;10.704;2023-05-01T03:19:00;92277.09;;;7.49;100.00
52735;BME280;38631;47.572;10.704;2023-05-01T03:21:26;92281.00;;;7.51;100.00
52735;BME280;38631;47.572;10.704;2023-05-01T03:23:51;92273.97;;;7.61;100.00
52735;BME280;38631;47.572;10.704;2023-05-01T03:26:17;92273.66;;;7.48;100.00
52735;BME280;38631;47.572;10.704;2023-05-01T03:28:42;92265.16;;;7.51;100.00
52735;BME280;38631;47.572;10.704;2023-05-01T03:31:07;92268.25;;;7.40;100.00
52735;BME280;38631;47.572;10.704;2023-05-01T03:33:33;92274.84;;;7.56;100.00
52735;BME280;38631;47.572;10.704;2023-05-01T03:36:02;92272.97;;;7.56;100.00
52735;BME280;38631;47.572;10.704;2023-05-01T03:38:29;92269.38;;;7.66;100.00
52735;BME280;38631;47.572;10.704;2023-05-01T03:40:55;92273.69;;;7.76;100.00
52735;BME280;38631;47.572;10.704;2023-05-01T03:43:20;92273.00;;;7.70;100.00
52735;BME280;38631;47.572;10.704;2023-05-01T03:45:46;92269.66;;;7.51;100.00
52735;BME280;38631;47.572;10.704;2023-05-01T03:48:11;92256.03;;;7.44;100.00
52735;BME280;38631;47.572;10.704;2023-05-01T03:50:38;92261.22;;;7.35;100.00
52735;BME280;38631;47.572;10.704;2023-05-01T03:53:03;92257.78;;;7.34;100.00
52735;BME280;38631;47.572;10.704;2023-05-01T03:55:29;92261.34;;;7.44;100.00
52735;BME280;38631;47.572;10.704;2023-05-01T03:57:54;92264.47;;;7.46;100.00
52735;BME280;38631;47.572;10.704;2023-05-01T04:00:20;92262.69;;;7.41;100.00
52735;BME280;38631;47.572;10.704;2023-05-01T04:02:45;92263.00;;;7.53;100.00
52735;BME280;38631;47.572;10.704;2023-05-01T04:05:11;92260.88;;;7.55;100.00
52735;BME280;38631;47.572;10.704;2023-05-01T04:07:37;92251.84;;;7.56;100.00
52735;BME280;38631;47.572;10.704;2023-05-01T04:10:03;92250.69;;;7.63;100.00
52735;BME280;38631;47.572;10.704;2023-05-01T04:12:29;92260.00;;;7.60;100.00
52735;BME280;38631;47.572;10.704;2023-05-01T04:14:54;92247.16;;;7.53;100.00
52735;BME280;38631;47.572;10.704;2023-05-01T04:17:19;92259.19;;;7.60;100.00
52735;BME280;38631;47.572;10.704;2023-05-01T04:19:45;92263.50;;;7.55;100.00
52735;BME280;38631;47.572;10.704;2023-05-01T04:22:12;92252.66;;;7.71;100.00
52735;BME280;38631;47.572;10.704;2023-05-01T04:24:37;92251.66;;;7.67;100.00
52735;BME280;38631;47.572;10.704;2023-05-01T04:27:02;92259.31;;;7.68;100.00
52735;BME280;38631;47.572;10.704;2023-05-01T04:29:29;92253.53;;;7.66;100.00
52735;BME280;38631;47.572;10.704;2023-05-01T04:31:55;92244.63;;;7.76;100.00
52735;BME280;38631;47.572;10.704;2023-05-01T04:34:21;92253.22;;;7.82;100.00
52735;BME280;38631;47.572;10.704;2023-05-01T04:36:46;92262.34;;;7.75;100.00
52735;BME280;38631;47.572;10.704;2023-05-01T04:39:11;92257.94;;;7.71;100.00
52735;BME280;38631;47.572;10.704;2023-05-01T04:41:37;92263.03;;;7.81;100.00
52735;BME280;38631;47.572;10.704;2023-05-01T04:44:02;92257.03;;;7.62;100.00
52735;BME280;38631;47.572;10.704;2023-05-01T04:46:27;92259.59;;;7.81;100.00
52735;BME280;38631;47.572;10.704;2023-05-01T04:48:53;92261.25;;;7.90;100.00
52735;BME280;38631;47.572;10.704;2023-05-01T04:51:18;92264.38;;;7.92;100.00
52735;BME280;38631;47.572;10.704;2023-05-01T04:53:44;92263.22;;;7.98;100.00
52735;BME280;38631;47.572;10.704;2023-05-01T04:56:10;92262.63;;;8.01;100.00
52735;BME280;38631;47.572;10.704;2023-05-01T04:58:35;92263.31;;;7.93;100.00
52735;BME280;38631;47.572;10.704;2023-05-01T05:01:00;92270.47;;;7.93;100.00
52735;BME280;38631;47.572;10.704;2023-05-01T05:03:26;92262.25;;;7.81;100.00
52735;BME280;38631;47.572;10.704;2023-05-01T05:05:51;92267.03;;;7.92;100.00
52735;BME280;38631;47.572;10.704;2023-05-01T05:08:16;92267.13;;;8.01;100.00
52735;BME280;38631;47.572;10.704;2023-05-01T05:10:42;92268.41;;;8.04;100.00
52735;BME280;38631;47.572;10.704;2023-05-01T05:13:07;92274.28;;;8.00;100.00
52735;BME280;38631;47.572;10.704;2023-05-01T05:15:34;92273.41;;;8.05;100.00
52735;BME280;38631;47.572;10.704;2023-05-01T05:17:59;92269.16;;;8.04;100.00
52735;BME280;38631;47.572;10.704;2023-05-01T05:20:25;92266.75;;;8.08;100.00
52735;BME280;38631;47.572;10.704;2023-05-01T05:22:51;92275.25;;;8.05;100.00
52735;BME280;38631;47.572;10.704;2023-05-01T05:25:16;92272.69;;;8.13;100.00
52735;BME280;38631;47.572;10.704;2023-05-01T05:27:42;92268.56;;;8.07;100.00
52735;BME280;38631;47.572;10.704;2023-05-01T05:30:07;92268.47;;;8.12;100.00
52735;BME280;38631;47.572;10.704;2023-05-01T05:32:33;92278.19;;;8.03;100.00
52735;BME280;38631;47.572;10.704;2023-05-01T05:34:59;92276.16;;;8.00;100.00
52735;BME280;38631;47.572;10.704;2023-05-01T05:37:24;92276.22;;;7.95;100.00
52735;BME280;38631;47.572;10.704;2023-05-01T05:39:50;92271.03;;;8.04;100.00
52735;BME280;38631;47.572;10.704;2023-05-01T05:42:16;92275.03;;;8.15;100.00
52735;BME280;38631;47.572;10.704;2023-05-01T05:44:41;92281.78;;;8.21;100.00
52735;BME280;38631;47.572;10.704;2023-05-01T05:47:06;92277.09;;;8.18;100.00
52735;BME280;38631;47.572;10.704;2023-05-01T05:49:32;92270.72;;;8.19;100.00
52735;BME280;38631;47.572;10.704;2023-05-01T05:51:57;92276.69;;;8.25;100.00
52735;BME280;38631;47.572;10.704;2023-05-01T05:54:23;92278.06;;;8.22;100.00
52735;BME280;38631;47.572;10.704;2023-05-01T05:56:48;92282.69;;;8.16;100.00
52735;BME280;38631;47.572;10.704;2023-05-01T05:59:13;92283.34;;;8.22;100.00
52735;BME280;38631;47.572;10.704;2023-05-01T06:01:39;92281.97;;;8.25;100.00
52735;BME280;38631;47.572;10.704;2023-05-01T06:04:06;92291.06;;;8.32;100.00
52735;BME280;38631;47.572;10.704;2023-05-01T06:06:32;92287.06;;;8.35;100.00
52735;BME280;38631;47.572;10.704;2023-05-01T06:08:58;92281.75;;;8.35;100.00
52735;BME280;38631;47.572;10.704;2023-05-01T06:11:24;92289.06;;;8.43;100.00
52735;BME280;38631;47.572;10.704;2023-05-01T06:13:50;92287.84;;;8.35;100.00
52735;BME280;38631;47.572;10.704;2023-05-01T06:16:15;92284.91;;;8.37;100.00
52735;BME280;38631;47.572;10.704;2023-05-01T06:18:41;92285.00;;;8.32;100.00
52735;BME280;38631;47.572;10.704;2023-05-01T06:21:09;92287.78;;;8.13;100.00
52735;BME280;38631;47.572;10.704;2023-05-01T06:23:34;92287.75;;;8.27;100.00
52735;BME280;38631;47.572;10.704;2023-05-01T06:26:00;92279.13;;;8.35;100.00
52735;BME280;38631;47.572;10.704;2023-05-01T06:28:28;92285.13;;;8.27;100.00
52735;BME280;38631;47.572;10.704;2023-05-01T06:30:54;92281.44;;;8.00;100.00
52735;BME280;38631;47.572;10.704;2023-05-01T06:33:20;92283.47;;;8.17;100.00
52735;BME280;38631;47.572;10.704;2023-05-01T06:35:45;92285.50;;;8.34;100.00
52735;BME280;38631;47.572;10.704;2023-05-01T06:38:12;92289.13;;;8.38;100.00
52735;BME280;38631;47.572;10.704;2023-05-01T06:40:37;92284.31;;;8.40;100.00
52735;BME280;38631;47.572;10.704;2023-05-01T06:43:03;92286.09;;;8.31;100.00
52735;BME280;38631;47.572;10.704;2023-05-01T06:45:28;92281.09;;;8.29;100.00
52735;BME280;38631;47.572;10.704;2023-05-01T06:47:54;92286.28;;;8.34;100.00
52735;BME280;38631;47.572;10.704;2023-05-01T06:50:19;92289.72;;;8.49;100.00
52735;BME280;38631;47.572;10.704;2023-05-01T06:52:44;92295.78;;;8.63;100.00
52735;BME280;38631;47.572;10.704;2023-05-01T06:55:10;92292.16;;;8.45;100.00
52735;BME280;38631;47.572;10.704;2023-05-01T06:57:36;92294.13;;;8.39;100.00
52735;BME280;38631;47.572;10.704;2023-05-01T07:00:02;92297.84;;;8.38;100.00
52735;BME280;38631;47.572;10.704;2023-05-01T07:02:28;92298.44;;;8.35;100.00
52735;BME280;38631;47.572;10.704;2023-05-01T07:04:53;92296.94;;;8.57;100.00
52735;BME280;38631;47.572;10.704;2023-05-01T07:07:19;92298.09;;;8.64;100.00
52735;BME280;38631;47.572;10.704;2023-05-01T07:09:44;92310.44;;;8.69;100.00
52735;BME280;38631;47.572;10.704;2023-05-01T07:12:10;92303.72;;;8.49;100.00
52735;BME280;38631;47.572;10.704;2023-05-01T07:14:35;92305.31;;;8.50;100.00
52735;BME280;38631;47.572;10.704;2023-05-01T07:17:02;92310.00;;;8.53;100.00
52735;BME280;38631;47.572;10.704;2023-05-01T07:19:27;92305.97;;;8.56;100.00
52735;BME280;38631;47.572;10.704;2023-05-01T07:21:53;92307.69;;;8.74;100.00
52735;BME280;38631;47.572;10.704;2023-05-01T07:24:18;92300.63;;;8.70;100.00
52735;BME280;38631;47.572;10.704;2023-05-01T07:26:46;92305.41;;;8.81;100.00
52735;BME280;38631;47.572;10.704;2023-05-01T07:29:11;92310.88;;;8.85;100.00
52735;BME280;38631;47.572;10.704;2023-05-01T07:31:37;92305.34;;;8.95;100.00
52735;BME280;38631;47.572;10.704;2023-05-01T07:34:03;92308.91;;;8.91;100.00
52735;BME280;38631;47.572;10.704;2023-05-01T07:36:28;92305.78;;;8.89;100.00
52735;BME280;38631;47.572;10.704;2023-05-01T07:38:54;92310.59;;;9.09;100.00
52735;BME280;38631;47.572;10.704;2023-05-01T07:41:21;92304.78;;;8.98;100.00
52735;BME280;38631;47.572;10.704;2023-05-01T07:43:49;92303.50;;;8.96;100.00
52735;BME280;38631;47.572;10.704;2023-05-01T07:46:15;92307.97;;;9.09;100.00
52735;BME280;38631;47.572;10.704;2023-05-01T07:48:41;92300.25;;;8.99;100.00
52735;BME280;38631;47.572;10.704;2023-05-01T07:51:06;92320.59;;;9.12;100.00
52735;BME280;38631;47.572;10.704;2023-05-01T07:53:31;92313.53;;;9.07;100.00
52735;BME280;38631;47.572;10.704;2023-05-01T07:56:05;92313.50;;;9.21;100.00
52735;BME280;38631;47.572;10.704;2023-05-01T07:58:31;92314.63;;;9.29;100.00
52735;BME280;38631;47.572;10.704;2023-05-01T08:00:57;92317.28;;;9.29;100.00
52735;BME280;38631;47.572;10.704;2023-05-01T08:03:22;92315.19;;;9.17;100.00
52735;BME280;38631;47.572;10.704;2023-05-01T08:05:47;92316.28;;;9.16;100.00
52735;BME280;38631;47.572;10.704;2023-05-01T08:08:13;92326.25;;;9.19;100.00
52735;BME280;38631;47.572;10.704;2023-05-01T08:10:44;92325.78;;;9.17;100.00
52735;BME280;38631;47.572;10.704;2023-05-01T08:13:10;92322.50;;;9.20;100.00
52735;BME280;38631;47.572;10.704;2023-05-01T08:15:35;92319.16;;;9.28;100.00
52735;BME280;38631;47.572;10.704;2023-05-01T08:18:03;92321.69;;;9.34;100.00
52735;BME280;38631;47.572;10.704;2023-05-01T08:20:28;92325.28;;;9.38;100.00
52735;BME280;38631;47.572;10.704;2023-05-01T08:22:54;92327.81;;;9.43;100.00
52735;BME280;38631;47.572;10.704;2023-05-01T08:25:20;92326.88;;;9.39;100.00
52735;BME280;38631;47.572;10.704;2023-05-01T08:27:48;92326.66;;;9.35;100.00
52735;BME280;38631;47.572;10.704;2023-05-01T08:30:13;92327.00;;;9.34;100.00
52735;BME280;38631;47.572;10.704;2023-05-01T08:32:39;92339.75;;;9.32;100.00
52735;BME280;38631;47.572;10.704;2023-05-01T08:35:04;92328.19;;;9.27;100.00
52735;BME280;38631;47.572;10.704;2023-05-01T08:37:30;92323.38;;;9.29;100.00
52735;BME280;38631;47.572;10.704;2023-05-01T08:39:55;92329.00;;;9.28;100.00
52735;BME280;38631;47.572;10.704;2023-05-01T08:42:21;92335.72;;;9.34;100.00
52735;BME280;38631;47.572;10.704;2023-05-01T08:44:47;92329.81;;;9.37;100.00
52735;BME280;38631;47.572;10.704;2023-05-01T08:47:17;92329.88;;;9.46;100.00
52735;BME280;38631;47.572;10.704;2023-05-01T08:49:43;92336.56;;;9.43;100.00
52735;BME280;38631;47.572;10.704;2023-05-01T08:52:11;92340.13;;;9.39;100.00
52735;BME280;38631;47.572;10.704;2023-05-01T08:54:40;92337.47;;;9.39;100.00
52735;BME280;38631;47.572;10.704;2023-05-01T08:57:08;92336.38;;;9.40;100.00
52735;BME280;38631;47.572;10.704;2023-05-01T08:59:35;92338.84;;;9.36;100.00
52735;BME280;38631;47.572;10.704;2023-05-01T09:02:02;92341.91;;;9.29;100.00
52735;BME280;38631;47.572;10.704;2023-05-01T09:04:42;92345.22;;;9.35;100.00
52735;BME280;38631;47.572;10.704;2023-05-01T09:07:08;92350.34;;;9.32;100.00
52735;BME280;38631;47.572;10.704;2023-05-01T09:09:34;92346.59;;;9.33;100.00
52735;BME280;38631;47.572;10.704;2023-05-01T09:12:11;92353.50;;;9.34;100.00
52735;BME280;38631;47.572;10.704;2023-05-01T09:14:37;92345.34;;;9.30;100.00
52735;BME280;38631;47.572;10.704;2023-05-01T09:17:02;92346.31;;;9.34;100.00
52735;BME280;38631;47.572;10.704;2023-05-01T09:19:28;92349.09;;;9.29;100.00
52735;BME280;38631;47.572;10.704;2023-05-01T09:21:53;92361.50;;;9.42;100.00
52735;BME280;38631;47.572;10.704;2023-05-01T09:24:22;92352.09;;;9.36;100.00
52735;BME280;38631;47.572;10.704;2023-05-01T09:26:48;92347.41;;;9.33;100.00
52735;BME280;38631;47.572;10.704;2023-05-01T09:29:37;92362.25;;;9.43;100.00
52735;BME280;38631;47.572;10.704;2023-05-01T09:32:23;92356.53;;;9.49;100.00
52735;BME280;38631;47.572;10.704;2023-05-01T09:34:53;92364.56;;;9.58;100.00
52735;BME280;38631;47.572;10.704;2023-05-01T09:40:19;92356.66;;;9.44;100.00
52735;BME280;38631;47.572;10.704;2023-05-01T09:42:52;92365.09;;;9.46;100.00
52735;BME280;38631;47.572;10.704;2023-05-01T09:45:18;92358.41;;;9.49;100.00
52735;BME280;38631;47.572;10.704;2023-05-01T09:47:44;92360.78;;;9.50;100.00
52735;BME280;38631;47.572;10.704;2023-05-01T09:50:11;92361.06;;;9.49;100.00
52735;BME280;38631;47.572;10.704;2023-05-01T09:52:52;92354.03;;;9.44;100.00
52735;BME280;38631;47.572;10.704;2023-05-01T09:55:18;92369.16;;;9.44;100.00
52735;BME280;38631;47.572;10.704;2023-05-01T09:57:45;92356.19;;;9.42;100.00
52735;BME280;38631;47.572;10.704;2023-05-01T10:00:13;92360.66;;;9.56;100.00
52735;BME280;38631;47.572;10.704;2023-05-01T10:02:46;92358.41;;;9.49;100.00
52735;BME280;38631;47.572;10.704;2023-05-01T10:05:12;92359.69;;;9.51;100.00
52735;BME280;38631;47.572;10.704;2023-05-01T10:07:38;92353.25;;;9.44;100.00
52735;BME280;38631;47.572;10.704;2023-05-01T10:10:17;92365.00;;;9.51;100.00
52735;BME280;38631;47.572;10.704;2023-05-01T10:12:43;92360.03;;;9.59;100.00
52735;BME280;38631;47.572;10.704;2023-05-01T10:15:09;92354.66;;;9.50;100.00
52735;BME280;38631;47.572;10.704;2023-05-01T10:17:35;92359.03;;;9.46;100.00
52735;BME280;38631;47.572;10.704;2023-05-01T10:20:00;92361.44;;;9.56;100.00
52735;BME280;38631;47.572;10.704;2023-05-01T10:22:26;92356.66;;;9.44;100.00
52735;BME280;38631;47.572;10.704;2023-05-01T10:24:52;92360.09;;;9.45;100.00
52735;BME280;38631;47.572;10.704;2023-05-01T10:27:18;92364.09;;;9.34;100.00
52735;BME280;38631;47.572;10.704;2023-05-01T10:29:45;92361.19;;;9.44;100.00
52735;BME280;38631;47.572;10.704;2023-05-01T10:32:12;92359.31;;;9.44;100.00
52735;BME280;38631;47.572;10.704;2023-05-01T10:34:42;92364.50;;;9.27;100.00
52735;BME280;38631;47.572;10.704;2023-05-01T10:37:16;92372.28;;;9.46;100.00
52735;BME280;38631;47.572;10.704;2023-05-01T10:39:43;92364.44;;;9.41;100.00
52735;BME280;38631;47.572;10.704;2023-05-01T10:42:09;92366.38;;;9.49;100.00
52735;BME280;38631;47.572;10.704;2023-05-01T10:44:38;92365.75;;;9.52;100.00
52735;BME280;38631;47.572;10.704;2023-05-01T10:50:08;92370.03;;;9.39;100.00
52735;BME280;38631;47.572;10.704;2023-05-01T10:55:38;92367.16;;;9.49;100.00
52735;BME280;38631;47.572;10.704;2023-05-01T10:58:03;92361.69;;;9.46;100.00
52735;BME280;38631;47.572;10.704;2023-05-01T11:00:29;92361.94;;;9.36;100.00
52735;BME280;38631;47.572;10.704;2023-05-01T11:08:33;92358.78;;;9.34;100.00
52735;BME280;38631;47.572;10.704;2023-05-01T11:14:00;92359.31;;;9.44;100.00
52735;BME280;38631;47.572;10.704;2023-05-01T11:21:53;92356.25;;;9.51;100.00
52735;BME280;38631;47.572;10.704;2023-05-01T11:24:19;92353.47;;;9.56;100.00
52735;BME280;38631;47.572;10.704;2023-05-01T11:26:45;92355.34;;;9.56;100.00
52735;BME280;38631;47.572;10.704;2023-05-01T11:29:11;92355.28;;;9.69;100.00
52735;BME280;38631;47.572;10.704;2023-05-01T11:31:38;92347.84;;;9.58;100.00
52735;BME280;38631;47.572;10.704;2023-05-01T11:34:04;92355.03;;;9.57;100.00
52735;BME280;38631;47.572;10.704;2023-05-01T11:36:48;92345.75;;;9.68;100.00
52735;BME280;38631;47.572;10.704;2023-05-01T11:39:15;92346.97;;;9.40;100.00
52735;BME280;38631;47.572;10.704;2023-05-01T11:41:45;92357.56;;;9.62;100.00
52735;BME280;38631;47.572;10.704;2023-05-01T11:44:13;92352.13;;;9.67;100.00
52735;BME280;38631;47.572;10.704;2023-05-01T11:46:39;92344.44;;;9.57;100.00
52735;BME280;38631;47.572;10.704;2023-05-01T11:49:04;92353.00;;;9.54;100.00
52735;BME280;38631;47.572;10.704;2023-05-01T11:51:30;92351.31;;;9.58;100.00
52735;BME280;38631;47.572;10.704;2023-05-01T11:54:06;92359.00;;;9.68;100.00
52735;BME280;38631;47.572;10.704;2023-05-01T11:56:33;92358.66;;;9.61;100.00
52735;BME280;38631;47.572;10.704;2023-05-01T11:59:11;92359.41;;;9.53;100.00
52735;BME280;38631;47.572;10.704;2023-05-01T12:01:40;92357.41;;;9.59;100.00
52735;BME280;38631;47.572;10.704;2023-05-01T12:04:08;92352.03;;;9.50;100.00
52735;BME280;38631;47.572;10.704;2023-05-01T12:06:41;92356.53;;;9.49;100.00
52735;BME280;38631;47.572;10.704;2023-05-01T12:09:23;92360.09;;;9.45;100.00
52735;BME280;38631;47.572;10.704;2023-05-01T12:11:52;92352.59;;;9.38;100.00
52735;BME280;38631;47.572;10.704;2023-05-01T12:14:19;92365.59;;;9.48;100.00
52735;BME280;38631;47.572;10.704;2023-05-01T12:16:46;92363.78;;;9.35;100.00
52735;BME280;38631;47.572;10.704;2023-05-01T12:19:12;92363.13;;;9.52;100.00
52735;BME280;38631;47.572;10.704;2023-05-01T12:21:38;92358.31;;;9.32;100.00
52735;BME280;38631;47.572;10.704;2023-05-01T12:24:14;92363.13;;;9.52;100.00
52735;BME280;38631;47.572;10.704;2023-05-01T12:26:44;92370.03;;;9.62;100.00
52735;BME280;38631;47.572;10.704;2023-05-01T12:29:10;92363.31;;;9.33;100.00
52735;BME280;38631;47.572;10.704;2023-05-01T12:31:37;92366.25;;;9.32;100.00
52735;BME280;38631;47.572;10.704;2023-05-01T12:34:10;92377.09;;;9.21;100.00
52735;BME280;38631;47.572;10.704;2023-05-01T12:36:36;92373.22;;;9.27;100.00
52735;BME280;38631;47.572;10.704;2023-05-01T12:39:08;92371.28;;;9.19;100.00
52735;BME280;38631;47.572;10.704;2023-05-01T12:41:44;92373.53;;;9.26;100.00
52735;BME280;38631;47.572;10.704;2023-05-01T12:44:23;92362.03;;;9.08;100.00
52735;BME280;38631;47.572;10.704;2023-05-01T12:49:18;92368.25;;;9.26;100.00
52735;BME280;38631;47.572;10.704;2023-05-01T12:51:46;92380.22;;;9.23;100.00
52735;BME280;38631;47.572;10.704;2023-05-01T12:56:51;92376.19;;;9.26;100.00
52735;BME280;38631;47.572;10.704;2023-05-01T12:59:24;92365.50;;;9.17;100.00
52735;BME280;38631;47.572;10.704;2023-05-01T13:02:13;92375.44;;;9.12;100.00
52735;BME280;38631;47.572;10.704;2023-05-01T13:04:40;92378.41;;;9.33;100.00
52735;BME280;38631;47.572;10.704;2023-05-01T13:07:14;92368.25;;;9.26;100.00
52735;BME280;38631;47.572;10.704;2023-05-01T13:09:54;92382.03;;;9.37;100.00
52735;BME280;38631;47.572;10.704;2023-05-01T13:12:25;92372.28;;;9.46;100.00
52735;BME280;38631;47.572;10.704;2023-05-01T13:14:52;92372.94;;;9.51;100.00
52735;BME280;38631;47.572;10.704;2023-05-01T13:17:28;92376.59;;;9.19;100.00
52735;BME280;38631;47.572;10.704;2023-05-01T13:19:59;92368.03;;;9.22;100.00
52735;BME280;38631;47.572;10.704;2023-05-01T13:22:32;92374.63;;;9.47;100.00
52735;BME280;38631;47.572;10.704;2023-05-01T13:24:58;92369.28;;;9.39;100.00
52735;BME280;38631;47.572;10.704;2023-05-01T13:27:24;92369.06;;;9.13;100.00
52735;BME280;38631;47.572;10.704;2023-05-01T13:29:53;92365.84;;;9.02;100.00
52735;BME280;38631;47.572;10.704;2023-05-01T13:32:21;92375.28;;;9.08;100.00
52735;BME280;38631;47.572;10.704;2023-05-01T13:34:48;92366.75;;;8.97;100.00